createdAt,value
2022-12-04T00:00:11.900Z,28.98
2022-12-04T00:02:39.315Z,33.58
2022-12-04T00:05:08.305Z,33.58
2022-12-04T00:07:35.378Z,29.05
2022-12-04T00:10:02.744Z,31.48
2022-12-04T00:12:29.525Z,30.98
2022-12-04T00:17:46.940Z,34.13
2022-12-04T00:20:13.817Z,32.17
2022-12-04T00:22:40.635Z,33.92
2022-12-04T00:25:07.764Z,32.58
2022-12-04T00:27:34.676Z,31.20
2022-12-04T00:30:01.610Z,31.17
2022-12-04T00:32:28.473Z,33.20
2022-12-04T00:34:55.333Z,33.15
2022-12-04T00:37:22.155Z,29.70
2022-12-04T00:39:49.006Z,33.92
2022-12-04T00:42:15.840Z,30.90
2022-12-04T00:44:42.972Z,32.15
2022-12-04T00:47:09.740Z,27.73
2022-12-04T00:49:36.755Z,31.88
2022-12-04T00:52:03.681Z,30.88
2022-12-04T00:54:31.792Z,32.55
2022-12-04T00:56:58.622Z,31.65
2022-12-04T00:59:25.791Z,29.83
2022-12-04T01:01:52.659Z,30.60
2022-12-04T01:04:19.718Z,30.20
2022-12-04T01:06:47.053Z,29.48
2022-12-04T01:09:13.894Z,32.90
2022-12-04T01:11:40.685Z,31.55
2022-12-04T01:14:08.088Z,30.40
2022-12-04T01:16:37.852Z,30.75
2022-12-04T01:19:09.964Z,28.42
2022-12-04T01:21:37.697Z,28.63
2022-12-04T01:24:05.675Z,27.90
2022-12-04T01:26:32.517Z,28.70
2022-12-04T01:28:59.491Z,26.58
2022-12-04T01:31:26.576Z,29.80
2022-12-04T01:33:53.851Z,27.13
2022-12-04T01:36:23.771Z,29.73
2022-12-04T01:38:51.288Z,27.75
2022-12-04T01:41:21.284Z,27.42
2022-12-04T01:44:11.338Z,28.60
2022-12-04T01:46:39.676Z,26.88
2022-12-04T01:49:11.011Z,32.22
2022-12-04T01:51:42.751Z,26.88
2022-12-04T01:54:16.027Z,28.83
2022-12-04T01:57:11.852Z,30.48
2022-12-04T02:00:01.905Z,26.15
2022-12-04T02:02:36.961Z,29.40
2022-12-04T02:05:06.970Z,29.65
2022-12-04T02:07:34.453Z,29.55
2022-12-04T02:10:06.631Z,29.17
2022-12-04T02:12:55.878Z,27.60
2022-12-04T02:15:58.141Z,27.15
2022-12-04T02:19:06.717Z,28.08
2022-12-04T02:21:43.992Z,27.90
2022-12-04T02:24:13.597Z,29.92
2022-12-04T02:26:56.878Z,27.20
2022-12-04T02:30:01.314Z,29.77
2022-12-04T02:32:38.414Z,31.88
2022-12-04T02:35:05.792Z,25.83
2022-12-04T02:37:32.537Z,29.80
2022-12-04T02:40:21.393Z,29.30
2022-12-04T02:42:51.019Z,29.85
2022-12-04T02:45:23.177Z,29.65
2022-12-04T02:47:51.348Z,28.85
2022-12-04T02:50:22.278Z,30.85
2022-12-04T02:53:00.693Z,31.30
2022-12-04T02:55:37.719Z,30.38
2022-12-04T02:58:15.479Z,29.00
2022-12-04T03:00:45.293Z,32.47
2022-12-04T03:03:23.465Z,29.60
2022-12-04T03:06:02.664Z,33.97
2022-12-04T03:08:37.547Z,32.10
2022-12-04T03:11:04.959Z,30.23
2022-12-04T03:13:39.317Z,29.13
2022-12-04T03:16:20.995Z,33.10
2022-12-04T03:18:59.349Z,31.38
2022-12-04T03:21:29.744Z,34.75
2022-12-04T03:24:26.863Z,32.33
2022-12-04T03:27:01.136Z,33.00
2022-12-04T03:29:46.199Z,34.97
2022-12-04T03:32:33.452Z,31.90
2022-12-04T03:35:15.840Z,29.25
2022-12-04T03:38:04.741Z,32.45
2022-12-04T03:40:56.427Z,29.27
2022-12-04T03:43:32.008Z,35.33
2022-12-04T03:46:05.517Z,35.60
2022-12-04T03:48:41.314Z,30.55
2022-12-04T03:51:23.975Z,30.63
2022-12-04T03:53:55.718Z,33.80
2022-12-04T03:56:31.421Z,38.45
2022-12-04T03:59:05.685Z,35.58
2022-12-04T04:01:38.909Z,35.42
2022-12-04T04:04:10.302Z,33.30
2022-12-04T04:06:54.517Z,34.50
2022-12-04T04:09:25.527Z,31.50
2022-12-04T04:12:07.630Z,30.88
2022-12-04T04:15:05.553Z,34.00
2022-12-04T04:17:55.687Z,32.40
2022-12-04T04:20:47.760Z,37.72
2022-12-04T04:23:37.035Z,36.88
2022-12-04T04:26:04.933Z,35.63
2022-12-04T04:28:37.384Z,34.35
2022-12-04T04:31:29.353Z,34.38
2022-12-04T04:34:08.024Z,30.45
2022-12-04T04:36:59.855Z,29.58
2022-12-04T04:39:45.516Z,34.00
2022-12-04T04:42:21.272Z,35.72
2022-12-04T04:44:52.435Z,36.58
2022-12-04T04:47:28.204Z,33.20
2022-12-04T04:49:57.489Z,33.65
2022-12-04T04:52:24.962Z,34.78
2022-12-04T04:54:51.809Z,35.15
2022-12-04T04:57:30.697Z,28.88
2022-12-04T04:59:58.058Z,32.42
2022-12-04T05:02:26.925Z,37.03
2022-12-04T05:04:54.872Z,36.00
2022-12-04T05:07:21.712Z,36.50
2022-12-04T05:09:48.547Z,34.55
2022-12-04T05:12:15.437Z,31.50
2022-12-04T05:14:42.243Z,31.25
2022-12-04T05:17:12.560Z,34.53
2022-12-04T05:19:55.685Z,33.60
2022-12-04T05:22:34.677Z,32.40
2022-12-04T05:25:02.044Z,34.10
2022-12-04T05:27:30.818Z,32.97
2022-12-04T05:29:58.752Z,32.88
2022-12-04T05:32:27.926Z,35.42
2022-12-04T05:34:56.590Z,35.38
2022-12-04T05:37:24.473Z,32.90
2022-12-04T05:39:51.281Z,32.05
2022-12-04T05:42:18.074Z,36.05
2022-12-04T05:44:44.939Z,33.60
2022-12-04T05:47:11.836Z,32.92
2022-12-04T05:49:38.834Z,31.63
2022-12-04T05:52:06.241Z,38.42
2022-12-04T05:54:33.368Z,29.08
2022-12-04T05:57:00.196Z,34.78
2022-12-04T05:59:27.024Z,32.13
2022-12-04T06:01:53.972Z,31.10
2022-12-04T06:04:20.882Z,33.83
2022-12-04T06:06:47.740Z,37.42
2022-12-04T06:09:14.569Z,32.67
2022-12-04T06:11:42.676Z,35.92
2022-12-04T06:14:13.475Z,33.92
2022-12-04T06:16:43.384Z,32.50
2022-12-04T06:19:14.714Z,30.52
2022-12-04T06:21:43.693Z,32.58
2022-12-04T06:24:17.904Z,34.30
2022-12-04T06:27:11.244Z,32.72
2022-12-04T06:29:33.398Z,36.17
2022-12-04T06:32:00.390Z,31.27
2022-12-04T06:34:27.466Z,34.17
2022-12-04T06:36:54.281Z,31.95
2022-12-04T06:39:21.258Z,34.80
2022-12-04T06:41:48.148Z,36.22
2022-12-04T06:44:15.668Z,32.80
2022-12-04T06:46:46.713Z,34.10
2022-12-04T06:49:13.806Z,34.28
2022-12-04T06:51:40.954Z,34.90
2022-12-04T06:54:07.952Z,32.00
2022-12-04T06:56:35.267Z,32.38
2022-12-04T06:59:03.630Z,32.03
2022-12-04T07:01:32.616Z,30.80
2022-12-04T07:04:01.465Z,29.27
2022-12-04T07:06:30.972Z,31.67
2022-12-04T07:09:13.252Z,29.40
2022-12-04T07:11:41.275Z,31.73
2022-12-04T07:14:08.940Z,29.80
2022-12-04T07:16:40.643Z,33.20
2022-12-04T07:19:13.657Z,32.15
2022-12-04T07:21:41.778Z,31.92
2022-12-04T07:24:10.772Z,30.33
2022-12-04T07:26:37.873Z,30.27
2022-12-04T07:29:05.143Z,30.25
2022-12-04T07:31:32.008Z,30.83
2022-12-04T07:33:59.344Z,33.22
2022-12-04T07:36:27.151Z,30.65
2022-12-04T07:38:56.183Z,34.55
2022-12-04T07:41:23.121Z,30.30
2022-12-04T07:43:50.000Z,33.03
2022-12-04T07:46:20.271Z,32.03
2022-12-04T07:48:47.104Z,30.42
2022-12-04T07:51:23.706Z,29.08
2022-12-04T07:53:53.234Z,28.50
2022-12-04T07:56:20.870Z,31.80
2022-12-04T07:58:48.034Z,30.77
2022-12-04T08:01:20.110Z,29.95
2022-12-04T08:03:49.112Z,30.90
2022-12-04T08:06:21.859Z,35.42
2022-12-04T08:08:49.885Z,30.40
2022-12-04T08:11:19.955Z,29.45
2022-12-04T08:13:46.796Z,32.22
2022-12-04T08:16:14.937Z,40.28
2022-12-04T08:18:46.627Z,33.53
2022-12-04T08:21:16.324Z,38.05
2022-12-04T08:23:44.428Z,35.22
2022-12-04T08:26:12.323Z,40.72
2022-12-04T08:28:40.017Z,37.17
2022-12-04T08:31:10.774Z,34.50
2022-12-04T08:33:37.930Z,34.05
2022-12-04T08:36:10.042Z,35.33
2022-12-04T08:38:37.858Z,33.70
2022-12-04T08:41:06.611Z,36.55
2022-12-04T08:43:33.562Z,37.03
2022-12-04T08:46:07.941Z,38.42
2022-12-04T08:48:34.794Z,40.20
2022-12-04T08:51:04.332Z,38.33
2022-12-04T08:53:32.303Z,38.63
2022-12-04T08:56:01.461Z,39.05
2022-12-04T08:58:28.257Z,39.60
2022-12-04T09:00:55.311Z,37.70
2022-12-04T09:03:27.678Z,47.47
2022-12-04T09:06:01.945Z,42.95
2022-12-04T09:08:29.344Z,39.88
2022-12-04T09:10:56.545Z,36.08
2022-12-04T09:13:23.321Z,42.20
2022-12-04T09:15:50.218Z,36.65
2022-12-04T09:18:17.055Z,40.20
2022-12-04T09:20:43.867Z,37.75
2022-12-04T09:23:10.678Z,35.83
2022-12-04T09:25:38.062Z,41.92
2022-12-04T09:28:05.069Z,36.83
2022-12-04T09:30:40.630Z,40.03
2022-12-04T09:33:10.527Z,36.80
2022-12-04T09:35:39.348Z,36.30
2022-12-04T09:38:06.190Z,39.10
2022-12-04T09:40:48.728Z,37.00
2022-12-04T09:43:24.877Z,38.42
2022-12-04T09:45:56.056Z,36.92
2022-12-04T09:48:32.108Z,39.55
2022-12-04T09:51:01.339Z,43.83
2022-12-04T09:53:37.673Z,38.47
2022-12-04T09:56:07.923Z,43.40
2022-12-04T09:58:42.776Z,40.92
2022-12-04T10:01:21.696Z,40.25
2022-12-04T10:03:48.997Z,40.97
2022-12-04T10:06:24.212Z,36.22
2022-12-04T10:09:12.682Z,48.25
2022-12-04T10:11:56.272Z,41.28
2022-12-04T10:14:41.457Z,37.13
2022-12-04T10:17:20.534Z,41.80
2022-12-04T10:20:08.595Z,44.70
2022-12-04T10:22:57.164Z,49.58
2022-12-04T10:25:26.257Z,43.42
2022-12-04T10:28:18.955Z,46.10
2022-12-04T10:30:46.932Z,42.40
2022-12-04T10:33:13.802Z,46.70
2022-12-04T10:35:43.916Z,48.50
2022-12-04T10:38:42.677Z,45.88
2022-12-04T10:41:47.105Z,45.42
2022-12-04T10:44:16.635Z,43.05
2022-12-04T10:46:46.385Z,55.15
2022-12-04T10:49:19.466Z,56.88
2022-12-04T10:51:47.580Z,49.85
2022-12-04T10:54:39.745Z,48.25
2022-12-04T10:57:10.225Z,50.28
2022-12-04T10:59:49.302Z,49.65
2022-12-04T11:02:16.182Z,49.65
2022-12-04T11:04:43.828Z,44.97
2022-12-04T11:07:23.464Z,42.78
2022-12-04T11:10:17.218Z,47.45
2022-12-04T11:12:55.312Z,43.03
2022-12-04T11:15:22.350Z,40.60
2022-12-04T11:17:49.242Z,46.10
2022-12-04T11:20:20.128Z,40.03
2022-12-04T11:22:58.168Z,43.63
2022-12-04T11:25:34.250Z,45.55
2022-12-04T11:28:03.753Z,40.42
2022-12-04T11:30:38.090Z,40.20
2022-12-04T11:33:15.146Z,41.13
2022-12-04T11:35:42.260Z,39.88
2022-12-04T11:38:16.125Z,37.65
2022-12-04T11:40:52.215Z,40.45
2022-12-04T11:43:19.607Z,37.40
2022-12-04T11:45:56.917Z,41.40
2022-12-04T11:48:24.063Z,54.53
2022-12-04T11:51:00.116Z,46.95
2022-12-04T11:53:48.521Z,42.83
2022-12-04T11:56:36.188Z,49.10
2022-12-04T11:59:49.039Z,45.17
2022-12-04T12:02:51.639Z,45.30
2022-12-04T12:05:25.070Z,46.67
2022-12-04T12:08:43.531Z,45.15
2022-12-04T12:11:29.036Z,46.00
2022-12-04T12:14:16.879Z,40.78
2022-12-04T12:17:16.595Z,42.45
2022-12-04T12:20:04.091Z,40.50
2022-12-04T12:22:57.432Z,39.58
2022-12-04T12:25:38.677Z,36.40
2022-12-04T12:28:44.623Z,38.05
2022-12-04T12:31:19.037Z,39.22
2022-12-04T12:33:57.691Z,45.50
2022-12-04T12:36:27.474Z,41.75
2022-12-04T12:39:03.204Z,35.10
2022-12-04T12:41:42.355Z,36.67
2022-12-04T12:44:21.627Z,41.03
2022-12-04T12:46:55.349Z,35.17
2022-12-04T12:49:31.416Z,34.92
2022-12-04T12:52:14.651Z,34.40
2022-12-04T12:54:57.257Z,32.28
2022-12-04T12:57:36.271Z,36.13
2022-12-04T13:00:22.747Z,38.47
2022-12-04T13:03:20.127Z,43.35
2022-12-04T13:05:50.797Z,37.83
2022-12-04T13:08:25.778Z,38.72
2022-12-04T13:11:16.113Z,39.30
2022-12-04T13:13:49.970Z,34.75
2022-12-04T13:16:17.221Z,40.58
2022-12-04T13:18:51.017Z,36.78
2022-12-04T13:21:36.859Z,37.60
2022-12-04T13:24:18.874Z,35.53
2022-12-04T13:26:56.716Z,41.95
2022-12-04T13:29:41.309Z,40.97
2022-12-04T13:32:29.277Z,33.78
2022-12-04T13:35:18.449Z,32.90
2022-12-04T13:37:50.991Z,35.30
2022-12-04T13:40:40.681Z,37.50
2022-12-04T13:43:23.826Z,41.83
2022-12-04T13:45:53.695Z,34.80
2022-12-04T13:48:28.637Z,37.00
2022-12-04T13:51:22.175Z,34.08
2022-12-04T13:54:01.497Z,37.45
2022-12-04T13:56:30.942Z,36.63
2022-12-04T13:59:02.185Z,37.80
2022-12-04T14:01:41.397Z,35.03
2022-12-04T14:04:22.484Z,32.38
2022-12-04T14:06:51.958Z,34.97
2022-12-04T14:09:25.188Z,31.65
2022-12-04T14:12:01.371Z,34.92
2022-12-04T14:14:52.590Z,30.42
2022-12-04T14:17:25.805Z,30.50
2022-12-04T14:20:00.774Z,38.53
2022-12-04T14:22:29.952Z,33.10
2022-12-04T14:25:24.095Z,36.38
2022-12-04T14:27:53.556Z,39.67
2022-12-04T14:30:23.163Z,42.53
2022-12-04T14:32:54.110Z,46.08
2022-12-04T14:35:23.876Z,38.15
2022-12-04T14:37:53.169Z,44.08
2022-12-04T14:40:27.053Z,48.80
2022-12-04T14:42:54.624Z,49.35
2022-12-04T14:45:45.856Z,39.40
2022-12-04T14:48:34.771Z,43.78
2022-12-04T14:51:17.735Z,45.58
2022-12-04T14:53:50.481Z,34.38
2022-12-04T14:56:31.482Z,37.10
2022-12-04T14:58:59.179Z,37.60
2022-12-04T15:01:31.547Z,44.53
2022-12-04T15:04:05.343Z,44.90
2022-12-04T15:06:33.894Z,44.45
2022-12-04T15:09:22.654Z,37.97
2022-12-04T15:12:13.502Z,38.53
2022-12-04T15:14:48.301Z,43.53
2022-12-04T15:17:17.744Z,48.58
2022-12-04T15:19:46.017Z,37.83
2022-12-04T15:22:26.077Z,36.90
2022-12-04T15:24:53.883Z,35.72
2022-12-04T15:27:28.825Z,28.75
2022-12-04T15:30:00.385Z,36.53
2022-12-04T15:32:28.829Z,33.53
2022-12-04T15:35:05.806Z,34.17
2022-12-04T15:37:33.928Z,32.53
2022-12-04T15:40:04.864Z,33.05
2022-12-04T15:42:31.956Z,29.58
2022-12-04T15:45:08.043Z,29.85
2022-12-04T15:47:50.740Z,33.53
2022-12-04T15:50:22.542Z,32.25
2022-12-04T15:53:08.016Z,32.08
2022-12-04T15:55:57.522Z,35.40
2022-12-04T15:58:37.800Z,34.20
2022-12-04T16:01:13.047Z,133.13
2022-12-04T16:03:43.004Z,69.60
2022-12-04T16:06:26.768Z,93.78
2022-12-04T16:09:15.136Z,44.53
2022-12-04T16:11:42.911Z,35.67
2022-12-04T16:14:12.480Z,36.47
2022-12-04T16:16:43.615Z,35.65
2022-12-04T16:19:16.812Z,35.17
2022-12-04T16:21:44.187Z,38.45
2022-12-04T16:24:12.862Z,33.95
2022-12-04T16:26:40.001Z,34.10
2022-12-04T16:29:06.881Z,39.53
2022-12-04T16:31:34.170Z,37.08
2022-12-04T16:34:01.200Z,36.10
2022-12-04T16:36:28.053Z,40.60
2022-12-04T16:38:54.896Z,34.13
2022-12-04T16:41:21.838Z,37.25
2022-12-04T16:43:57.244Z,34.05
2022-12-04T16:46:25.963Z,31.77
2022-12-04T16:48:52.998Z,30.40
2022-12-04T16:51:22.817Z,30.23
2022-12-04T16:53:51.868Z,32.67
2022-12-04T16:56:19.750Z,28.98
2022-12-04T16:58:46.724Z,33.88
2022-12-04T17:01:26.310Z,28.20
2022-12-04T17:03:53.281Z,27.98
2022-12-04T17:06:20.517Z,31.52
2022-12-04T17:08:47.458Z,29.80
2022-12-04T17:11:16.309Z,27.45
2022-12-04T17:13:43.577Z,27.77
2022-12-04T17:16:14.679Z,31.95
2022-12-04T17:18:42.789Z,31.38
2022-12-04T17:21:12.578Z,30.17
2022-12-04T17:23:40.246Z,29.48
2022-12-04T17:26:12.754Z,26.77
2022-12-04T17:28:40.582Z,30.17
2022-12-04T17:31:19.913Z,28.67
2022-12-04T17:33:47.216Z,28.38
2022-12-04T17:36:17.129Z,27.95
2022-12-04T17:38:44.778Z,28.52
2022-12-04T17:41:16.222Z,24.42
2022-12-04T17:43:44.228Z,24.67
2022-12-04T17:46:17.630Z,27.92
2022-12-04T17:48:44.678Z,28.25
2022-12-04T17:51:21.070Z,31.65
2022-12-04T17:53:48.026Z,23.63
2022-12-04T17:56:18.919Z,35.75
2022-12-04T17:58:47.120Z,27.38
2022-12-04T18:01:17.092Z,21.45
2022-12-04T18:03:44.426Z,24.45
2022-12-04T18:06:17.257Z,25.23
2022-12-04T18:08:49.710Z,21.98
2022-12-04T18:11:20.482Z,20.75
2022-12-04T18:13:49.415Z,24.48
2022-12-04T18:16:16.367Z,23.35
2022-12-04T18:18:46.626Z,21.25
2022-12-04T18:21:14.090Z,19.25
2022-12-04T18:23:45.751Z,18.00
2022-12-04T18:26:21.331Z,25.23
2022-12-04T18:28:49.748Z,20.42
2022-12-04T18:31:19.146Z,20.42
2022-12-04T18:33:46.369Z,19.30
2022-12-04T18:36:16.293Z,22.63
2022-12-04T18:38:43.573Z,21.33
2022-12-04T18:41:12.389Z,21.67
2022-12-04T18:43:41.718Z,23.30
2022-12-04T18:46:11.082Z,23.02
2022-12-04T18:48:39.098Z,24.02
2022-12-04T18:51:16.551Z,25.02
2022-12-04T18:53:44.411Z,24.75
2022-12-04T18:56:11.444Z,25.08
2022-12-04T18:58:38.246Z,28.73
2022-12-04T19:01:13.960Z,25.23
2022-12-04T19:03:42.316Z,28.85
2022-12-04T19:06:09.233Z,28.42
2022-12-04T19:08:41.419Z,26.40
2022-12-04T19:11:15.272Z,28.73
2022-12-04T19:13:42.691Z,28.05
2022-12-04T19:16:14.504Z,25.45
2022-12-04T19:18:42.343Z,28.98
2022-12-04T19:21:09.489Z,29.73
2022-12-04T19:23:36.335Z,29.83
2022-12-04T19:26:03.420Z,26.60
2022-12-04T19:28:30.624Z,28.27
2022-12-04T19:30:58.109Z,32.25
2022-12-04T19:33:25.521Z,34.53
2022-12-04T19:36:05.199Z,33.03
2022-12-04T19:38:33.401Z,32.85
2022-12-04T19:41:09.431Z,32.17
2022-12-04T19:43:41.817Z,30.48
2022-12-04T19:46:10.774Z,38.85
2022-12-04T19:48:37.973Z,34.60
2022-12-04T19:51:11.162Z,37.20
2022-12-04T19:53:41.122Z,37.67
2022-12-04T19:56:21.539Z,38.50
2022-12-04T19:58:48.548Z,36.47
2022-12-04T20:01:18.989Z,39.08
2022-12-04T20:03:46.116Z,34.05
2022-12-04T20:06:18.316Z,33.65
2022-12-04T20:08:46.283Z,40.03
2022-12-04T20:11:18.781Z,37.55
2022-12-04T20:13:47.284Z,33.42
2022-12-04T20:16:16.758Z,41.28
2022-12-04T20:18:44.050Z,36.30
2022-12-04T20:21:12.133Z,39.40
2022-12-04T20:23:44.412Z,36.72
2022-12-04T20:26:13.435Z,36.17
2022-12-04T20:28:41.471Z,42.10
2022-12-04T20:31:13.347Z,36.10
2022-12-04T20:33:41.203Z,43.50
2022-12-04T20:36:09.583Z,34.80
2022-12-04T20:38:37.457Z,37.97
2022-12-04T20:41:09.511Z,37.22
2022-12-04T20:43:37.492Z,37.90
2022-12-04T20:46:24.658Z,37.20
2022-12-04T20:48:53.451Z,38.67
2022-12-04T20:51:24.768Z,37.65
2022-12-04T20:53:52.862Z,40.17
2022-12-04T20:56:21.826Z,41.17
2022-12-04T20:58:48.847Z,36.60
2022-12-04T21:01:18.936Z,40.28
2022-12-04T21:03:46.695Z,39.17
2022-12-04T21:06:16.384Z,38.47
2022-12-04T21:08:59.418Z,46.28
2022-12-04T21:11:32.160Z,45.03
2022-12-04T21:14:19.564Z,43.40
2022-12-04T21:16:47.119Z,42.17
2022-12-04T21:19:16.098Z,41.42
2022-12-04T21:21:43.525Z,38.55
2022-12-04T21:24:12.562Z,46.33
2022-12-04T21:26:39.739Z,39.90
2022-12-04T21:29:07.766Z,42.55
2022-12-04T21:31:36.514Z,37.83
2022-12-04T21:34:05.957Z,42.40
2022-12-04T21:36:33.522Z,43.65
2022-12-04T21:39:00.588Z,45.95
2022-12-04T21:41:46.291Z,38.13
2022-12-04T21:44:16.195Z,49.75
2022-12-04T21:46:44.299Z,43.45
2022-12-04T21:49:11.861Z,45.72
2022-12-04T21:51:56.705Z,45.33
2022-12-04T21:54:25.456Z,47.15
2022-12-04T21:56:52.280Z,49.03
2022-12-04T21:59:19.232Z,50.70
2022-12-04T22:01:46.110Z,47.97
2022-12-04T22:04:13.247Z,46.55
2022-12-04T22:06:40.264Z,60.55
2022-12-04T22:09:09.704Z,49.17
2022-12-04T22:11:37.228Z,55.55
2022-12-04T22:14:04.765Z,54.85
2022-12-04T22:16:34.642Z,55.00
2022-12-04T22:19:04.538Z,55.10
2022-12-04T22:21:31.434Z,59.28
2022-12-04T22:24:02.047Z,69.78
2022-12-04T22:26:30.193Z,58.03
2022-12-04T22:28:57.597Z,64.55
2022-12-04T22:31:28.744Z,55.90
2022-12-04T22:33:59.121Z,51.92
2022-12-04T22:36:31.746Z,66.75
2022-12-04T22:39:09.736Z,62.63
2022-12-04T22:41:38.147Z,68.88
2022-12-04T22:44:05.202Z,76.03
2022-12-04T22:46:32.883Z,71.70
2022-12-04T22:49:00.173Z,71.20
2022-12-04T22:51:27.616Z,69.05
2022-12-04T22:53:56.772Z,68.60
2022-12-04T22:56:29.663Z,70.68
2022-12-04T22:58:57.944Z,63.25
2022-12-04T23:01:33.302Z,70.38
2022-12-04T23:04:01.078Z,65.95
2022-12-04T23:06:31.596Z,75.70
2022-12-04T23:09:01.466Z,72.03
2022-12-04T23:11:28.667Z,74.95
2022-12-04T23:14:01.128Z,65.32
2022-12-04T23:16:31.375Z,73.05
2022-12-04T23:18:59.082Z,62.30
2022-12-04T23:21:27.270Z,65.05
2022-12-04T23:23:54.914Z,56.10
2022-12-04T23:26:29.215Z,62.38
2022-12-04T23:28:56.423Z,55.85
2022-12-04T23:31:23.308Z,53.53
2022-12-04T23:33:50.283Z,54.55
2022-12-04T23:36:17.678Z,58.00
2022-12-04T23:38:45.736Z,48.80
2022-12-04T23:41:12.517Z,55.75
2022-12-04T23:43:40.238Z,56.05
2022-12-04T23:46:11.358Z,52.95
2022-12-04T23:48:40.319Z,55.22
2022-12-04T23:51:08.044Z,55.95
2022-12-04T23:53:34.933Z,48.97
2022-12-04T23:56:10.172Z,58.13
2022-12-04T23:58:37.886Z,58.50
